Yangon, Myanmar

8:58 PM MMT on February 08, 2016 (GMT +0630)
Golden Valley | | Change Station
CLOSE
Current Station
Personal Weather Station
Location: Yangon, YANGON REGION
Elevation: 105 ft
Nearby Weather Stations

Elev 105 ft 16.82 °N, 96.14 °E | Updated 36 seconds ago

Scattered Clouds
Scattered Clouds
71.6 °F
Feels Like 76 °F
N
0.0
Wind Variable Wind from SSE
Gusts 0.0 mph

Today
High -- | Low -- °F
--% Chance of Precip.
Yesterday
High -- | Low -- °F
Precip. -- in
Pressure 29.95 in
Visibility 4.3 miles
Clouds Scattered Clouds 25000 ft
Heat Index 76 °F
Dew Point 58 °F
Humidity 61%
Rainfall 0.00 in
Snow Depth Not available.
6:34 AM 6:04 PM
Waning Crescent, 0% visible
METAR VYYY 081330Z 19002KT 7000 R21/2000N SCT250 25/17 Q1014
Pressure 29.95 in
Visibility 4.3 miles
Clouds Scattered Clouds 25000 ft
Heat Index 76 °F
Dew Point 58 °F
Humidity 61%
Rainfall 0.00 in
Snow Depth Not available.
6:34 AM 6:04 PM
Waning Crescent, 0% visible
METAR VYYY 081330Z 19002KT 7000 R21/2000N SCT250 25/17 Q1014

10-Day Weather Forecast

No radar image for this location.
×

Almanac

Astronomy

Feb. 08, 2016 Rise Set
Actual Time
Civil Twilight
Nautical Twilight
Astronomical Twilight
Moon
Length of Visible Light
Length of Day
Tomorrow will be .
, % of the Moon is Illuminated

Today's Extremes

Country Highs Country Lows

Community

WunderPhotos

Upload Photos

1,891,437 photos uploaded!

WunderBlog® & News

Nearby

Air Quality

  Air Quality AQ Index Pollutant
Not available.

Snow Depth

Station Depth Elevation

Earthquake Activity

City Distance Mag. Time & Date
Minimum magnitude displayed is 2.5.

Coastal Water Temperatures

Place Temperature

Stations

Nearby Weather Stations

Station Location Temp. Windchill Dew Point Humidity Wind Precip. Elev Updated Type